sensor_id;sensor_type;location;lat;lon;timestamp;temperature;humidity
70593;DHT22;58294;42.988;20.338;2024-01-16T00:01:55;128.50;2022.40
70593;DHT22;58294;42.988;20.338;2024-01-16T00:04:21;128.40;2022.40
70593;DHT22;58294;42.988;20.338;2024-01-16T00:06:47;128.40;2048.00
70593;DHT22;58294;42.988;20.338;2024-01-16T00:09:13;128.40;2022.40
70593;DHT22;58294;42.988;20.338;2024-01-16T00:11:42;128.50;2073.60
70593;DHT22;58294;42.988;20.338;2024-01-16T00:14:08;128.50;2073.60
70593;DHT22;58294;42.988;20.338;2024-01-16T00:16:41;128.50;2073.60
70593;DHT22;58294;42.988;20.338;2024-01-16T00:19:07;128.50;2073.60
70593;DHT22;58294;42.988;20.338;2024-01-16T00:21:32;128.40;2048.00
70593;DHT22;58294;42.988;20.338;2024-01-16T00:24:03;128.40;2022.40
70593;DHT22;58294;42.988;20.338;2024-01-16T00:26:29;128.40;2073.60
70593;DHT22;58294;42.988;20.338;2024-01-16T00:28:55;128.40;2099.20
70593;DHT22;58294;42.988;20.338;2024-01-16T00:31:20;128.40;2099.20
70593;DHT22;58294;42.988;20.338;2024-01-16T00:33:46;128.50;2099.20
70593;DHT22;58294;42.988;20.338;2024-01-16T00:36:12;128.50;2099.20
70593;DHT22;58294;42.988;20.338;2024-01-16T00:38:38;128.50;2099.20
70593;DHT22;58294;42.988;20.338;2024-01-16T00:41:04;128.60;2099.20
70593;DHT22;58294;42.988;20.338;2024-01-16T00:43:29;128.60;2073.60
70593;DHT22;58294;42.988;20.338;2024-01-16T00:45:55;128.60;2099.20
70593;DHT22;58294;42.988;20.338;2024-01-16T00:48:21;128.70;2099.20
70593;DHT22;58294;42.988;20.338;2024-01-16T00:50:47;128.70;2099.20
70593;DHT22;58294;42.988;20.338;2024-01-16T00:53:16;128.70;2073.60
70593;DHT22;58294;42.988;20.338;2024-01-16T00:55:42;128.70;2073.60
70593;DHT22;58294;42.988;20.338;2024-01-16T00:58:08;128.70;2048.00
70593;DHT22;58294;42.988;20.338;2024-01-16T01:00:34;128.60;2022.40
70593;DHT22;58294;42.988;20.338;2024-01-16T01:03:00;128.50;2048.00
70593;DHT22;58294;42.988;20.338;2024-01-16T01:05:26;128.50;2073.60
70593;DHT22;58294;42.988;20.338;2024-01-16T01:07:55;128.60;2073.60
70593;DHT22;58294;42.988;20.338;2024-01-16T01:10:21;128.60;2099.20
70593;DHT22;58294;42.988;20.338;2024-01-16T01:12:47;128.70;2048.00
70593;DHT22;58294;42.988;20.338;2024-01-16T01:15:13;128.60;2073.60
70593;DHT22;58294;42.988;20.338;2024-01-16T01:17:41;128.60;2099.20
70593;DHT22;58294;42.988;20.338;2024-01-16T01:20:08;128.60;2048.00
70593;DHT22;58294;42.988;20.338;2024-01-16T01:22:35;128.60;2073.60
70593;DHT22;58294;42.988;20.338;2024-01-16T01:25:01;128.60;2099.20
70593;DHT22;58294;42.988;20.338;2024-01-16T01:27:26;128.60;2022.40
70593;DHT22;58294;42.988;20.338;2024-01-16T01:29:52;128.60;2048.00
70593;DHT22;58294;42.988;20.338;2024-01-16T01:32:18;128.50;2048.00
70593;DHT22;58294;42.988;20.338;2024-01-16T01:34:44;128.60;2048.00
70593;DHT22;58294;42.988;20.338;2024-01-16T01:37:09;128.50;2048.00
70593;DHT22;58294;42.988;20.338;2024-01-16T01:39:35;128.50;2048.00
70593;DHT22;58294;42.988;20.338;2024-01-16T01:42:01;128.50;2073.60
70593;DHT22;58294;42.988;20.338;2024-01-16T01:44:27;128.50;2073.60
70593;DHT22;58294;42.988;20.338;2024-01-16T01:46:56;128.50;2099.20
70593;DHT22;58294;42.988;20.338;2024-01-16T01:49:23;128.50;2073.60
70593;DHT22;58294;42.988;20.338;2024-01-16T01:51:49;128.40;2073.60
70593;DHT22;58294;42.988;20.338;2024-01-16T01:54:16;128.40;2099.20
70593;DHT22;58294;42.988;20.338;2024-01-16T01:56:44;128.40;2150.40
70593;DHT22;58294;42.988;20.338;2024-01-16T01:59:13;128.50;2150.40
70593;DHT22;58294;42.988;20.338;2024-01-16T02:01:40;128.50;2176.00
70593;DHT22;58294;42.988;20.338;2024-01-16T02:04:06;128.50;2073.60
70593;DHT22;58294;42.988;20.338;2024-01-16T02:06:32;128.50;2099.20
70593;DHT22;58294;42.988;20.338;2024-01-16T02:08:59;128.50;2073.60
70593;DHT22;58294;42.988;20.338;2024-01-16T02:11:25;128.30;2073.60
70593;DHT22;58294;42.988;20.338;2024-01-16T02:13:51;128.30;2099.20
70593;DHT22;58294;42.988;20.338;2024-01-16T02:16:21;128.20;2099.20
70593;DHT22;58294;42.988;20.338;2024-01-16T02:18:47;103.30;2124.80
70593;DHT22;58294;42.988;20.338;2024-01-16T02:21:18;103.20;2099.20
70593;DHT22;58294;42.988;20.338;2024-01-16T02:23:46;103.20;2124.80
70593;DHT22;58294;42.988;20.338;2024-01-16T02:26:16;103.10;2124.80
70593;DHT22;58294;42.988;20.338;2024-01-16T02:28:42;103.10;2150.40
70593;DHT22;58294;42.988;20.338;2024-01-16T02:31:08;103.10;2099.20
70593;DHT22;58294;42.988;20.338;2024-01-16T02:33:34;103.00;2099.20
70593;DHT22;58294;42.988;20.338;2024-01-16T02:36:00;102.90;2124.80
70593;DHT22;58294;42.988;20.338;2024-01-16T02:38:26;102.90;2176.00
70593;DHT22;58294;42.988;20.338;2024-01-16T02:40:51;102.90;2150.40
70593;DHT22;58294;42.988;20.338;2024-01-16T02:43:17;102.90;2150.40
70593;DHT22;58294;42.988;20.338;2024-01-16T02:45:43;103.00;2176.00
70593;DHT22;58294;42.988;20.338;2024-01-16T02:48:09;103.10;2176.00
70593;DHT22;58294;42.988;20.338;2024-01-16T02:50:35;103.10;2124.80
70593;DHT22;58294;42.988;20.338;2024-01-16T02:53:00;103.00;2099.20
70593;DHT22;58294;42.988;20.338;2024-01-16T02:55:26;102.80;2099.20
70593;DHT22;58294;42.988;20.338;2024-01-16T02:57:52;102.70;2150.40
70593;DHT22;58294;42.988;20.338;2024-01-16T03:00:18;102.80;2201.60
70593;DHT22;58294;42.988;20.338;2024-01-16T03:02:44;102.90;2176.00
70593;DHT22;58294;42.988;20.338;2024-01-16T03:05:10;102.80;2124.80
70593;DHT22;58294;42.988;20.338;2024-01-16T03:07:36;102.50;2124.80
70593;DHT22;58294;42.988;20.338;2024-01-16T03:10:02;102.60;2150.40
70593;DHT22;58294;42.988;20.338;2024-01-16T03:12:28;102.60;2150.40
70593;DHT22;58294;42.988;20.338;2024-01-16T03:14:54;102.40;2124.80
70593;DHT22;58294;42.988;20.338;2024-01-16T03:17:20;102.50;2124.80
70593;DHT22;58294;42.988;20.338;2024-01-16T03:19:46;102.40;2124.80
70593;DHT22;58294;42.988;20.338;2024-01-16T03:22:12;102.40;2150.40
70593;DHT22;58294;42.988;20.338;2024-01-16T03:24:38;102.60;2176.00
70593;DHT22;58294;42.988;20.338;2024-01-16T03:27:04;102.60;2176.00
70593;DHT22;58294;42.988;20.338;2024-01-16T03:29:30;102.70;2150.40
70593;DHT22;58294;42.988;20.338;2024-01-16T03:31:56;102.70;2124.80
70593;DHT22;58294;42.988;20.338;2024-01-16T03:34:23;102.70;2124.80
70593;DHT22;58294;42.988;20.338;2024-01-16T03:36:49;102.70;2099.20
70593;DHT22;58294;42.988;20.338;2024-01-16T03:39:15;102.80;2124.80
70593;DHT22;58294;42.988;20.338;2024-01-16T03:41:41;102.80;2073.60
70593;DHT22;58294;42.988;20.338;2024-01-16T03:44:07;102.80;2124.80
70593;DHT22;58294;42.988;20.338;2024-01-16T03:46:33;102.90;2124.80
70593;DHT22;58294;42.988;20.338;2024-01-16T03:48:58;102.80;2073.60
70593;DHT22;58294;42.988;20.338;2024-01-16T03:51:24;102.80;2048.00
70593;DHT22;58294;42.988;20.338;2024-01-16T03:53:50;102.70;2073.60
70593;DHT22;58294;42.988;20.338;2024-01-16T03:56:16;102.50;2048.00
70593;DHT22;58294;42.988;20.338;2024-01-16T03:58:42;102.40;2073.60
70593;DHT22;58294;42.988;20.338;2024-01-16T04:01:08;102.40;2073.60
70593;DHT22;58294;42.988;20.338;2024-01-16T04:03:34;77.70;2073.60
70593;DHT22;58294;42.988;20.338;2024-01-16T04:06:00;77.70;2073.60
70593;DHT22;58294;42.988;20.338;2024-01-16T04:08:26;77.70;2073.60
70593;DHT22;58294;42.988;20.338;2024-01-16T04:10:52;77.60;2099.20
70593;DHT22;58294;42.988;20.338;2024-01-16T04:13:18;77.50;2099.20
70593;DHT22;58294;42.988;20.338;2024-01-16T04:15:44;77.40;2099.20
70593;DHT22;58294;42.988;20.338;2024-01-16T04:18:10;77.40;2099.20
70593;DHT22;58294;42.988;20.338;2024-01-16T04:20:36;77.30;2227.20
70593;DHT22;58294;42.988;20.338;2024-01-16T04:23:03;77.30;2150.40
70593;DHT22;58294;42.988;20.338;2024-01-16T04:25:29;77.40;2176.00
70593;DHT22;58294;42.988;20.338;2024-01-16T04:27:55;77.50;2150.40
70593;DHT22;58294;42.988;20.338;2024-01-16T04:30:20;77.40;2176.00
70593;DHT22;58294;42.988;20.338;2024-01-16T04:32:46;77.50;2176.00
70593;DHT22;58294;42.988;20.338;2024-01-16T04:35:12;77.60;2201.60
70593;DHT22;58294;42.988;20.338;2024-01-16T04:37:38;77.60;2201.60
70593;DHT22;58294;42.988;20.338;2024-01-16T04:40:04;102.40;2201.60
70593;DHT22;58294;42.988;20.338;2024-01-16T04:42:33;102.50;2150.40
70593;DHT22;58294;42.988;20.338;2024-01-16T04:44:59;102.50;2124.80
70593;DHT22;58294;42.988;20.338;2024-01-16T04:47:25;102.60;2150.40
70593;DHT22;58294;42.988;20.338;2024-01-16T04:49:51;102.70;2150.40
70593;DHT22;58294;42.988;20.338;2024-01-16T04:52:17;102.70;2150.40
70593;DHT22;58294;42.988;20.338;2024-01-16T04:54:43;102.80;2150.40
70593;DHT22;58294;42.988;20.338;2024-01-16T04:57:11;102.90;2124.80
70593;DHT22;58294;42.988;20.338;2024-01-16T04:59:37;102.90;2124.80
70593;DHT22;58294;42.988;20.338;2024-01-16T05:02:02;102.90;2124.80
70593;DHT22;58294;42.988;20.338;2024-01-16T05:04:28;103.00;2124.80
70593;DHT22;58294;42.988;20.338;2024-01-16T05:06:54;103.00;2073.60
70593;DHT22;58294;42.988;20.338;2024-01-16T05:09:20;103.00;2073.60
70593;DHT22;58294;42.988;20.338;2024-01-16T05:11:46;103.00;2073.60
70593;DHT22;58294;42.988;20.338;2024-01-16T05:14:12;102.90;2048.00
70593;DHT22;58294;42.988;20.338;2024-01-16T05:16:37;102.90;2073.60
70593;DHT22;58294;42.988;20.338;2024-01-16T05:19:03;102.90;2099.20
70593;DHT22;58294;42.988;20.338;2024-01-16T05:21:29;102.90;2048.00
70593;DHT22;58294;42.988;20.338;2024-01-16T05:23:55;102.90;2073.60
70593;DHT22;58294;42.988;20.338;2024-01-16T05:26:21;102.90;2099.20
70593;DHT22;58294;42.988;20.338;2024-01-16T05:28:47;102.90;2124.80
70593;DHT22;58294;42.988;20.338;2024-01-16T05:31:13;102.90;2124.80
70593;DHT22;58294;42.988;20.338;2024-01-16T05:33:39;103.00;2150.40
70593;DHT22;58294;42.988;20.338;2024-01-16T05:36:05;103.00;2150.40
70593;DHT22;58294;42.988;20.338;2024-01-16T05:38:31;103.00;2099.20
70593;DHT22;58294;42.988;20.338;2024-01-16T05:40:57;102.90;2022.40
70593;DHT22;58294;42.988;20.338;2024-01-16T05:43:22;102.80;2022.40
70593;DHT22;58294;42.988;20.338;2024-01-16T05:45:48;102.70;2022.40
70593;DHT22;58294;42.988;20.338;2024-01-16T05:48:15;102.60;2073.60
70593;DHT22;58294;42.988;20.338;2024-01-16T05:50:41;102.60;2099.20
70593;DHT22;58294;42.988;20.338;2024-01-16T05:53:07;102.60;2150.40
70593;DHT22;58294;42.988;20.338;2024-01-16T05:55:33;102.70;2150.40
70593;DHT22;58294;42.988;20.338;2024-01-16T05:58:01;102.60;2150.40
70593;DHT22;58294;42.988;20.338;2024-01-16T06:00:26;102.70;2176.00
70593;DHT22;58294;42.988;20.338;2024-01-16T06:02:52;102.70;2176.00
70593;DHT22;58294;42.988;20.338;2024-01-16T06:05:18;102.80;2176.00
70593;DHT22;58294;42.988;20.338;2024-01-16T06:07:44;102.70;2124.80
70593;DHT22;58294;42.988;20.338;2024-01-16T06:10:12;102.80;2099.20
70593;DHT22;58294;42.988;20.338;2024-01-16T06:12:39;102.80;2124.80
70593;DHT22;58294;42.988;20.338;2024-01-16T06:15:05;102.80;2124.80
70593;DHT22;58294;42.988;20.338;2024-01-16T06:17:31;102.70;2124.80
70593;DHT22;58294;42.988;20.338;2024-01-16T06:19:57;102.70;2124.80
70593;DHT22;58294;42.988;20.338;2024-01-16T06:22:23;102.70;2073.60
70593;DHT22;58294;42.988;20.338;2024-01-16T06:24:49;102.80;2124.80
70593;DHT22;58294;42.988;20.338;2024-01-16T06:27:15;102.80;2124.80
70593;DHT22;58294;42.988;20.338;2024-01-16T06:29:45;102.90;2124.80
70593;DHT22;58294;42.988;20.338;2024-01-16T06:32:11;102.90;2124.80
70593;DHT22;58294;42.988;20.338;2024-01-16T06:34:36;102.90;2124.80
70593;DHT22;58294;42.988;20.338;2024-01-16T06:37:02;103.00;2124.80
70593;DHT22;58294;42.988;20.338;2024-01-16T06:39:28;103.00;2099.20
70593;DHT22;58294;42.988;20.338;2024-01-16T06:41:54;103.00;2124.80
70593;DHT22;58294;42.988;20.338;2024-01-16T06:44:20;103.10;2099.20
70593;DHT22;58294;42.988;20.338;2024-01-16T06:46:45;103.10;2099.20
70593;DHT22;58294;42.988;20.338;2024-01-16T06:49:12;103.20;2099.20
70593;DHT22;58294;42.988;20.338;2024-01-16T06:51:37;103.20;2073.60
70593;DHT22;58294;42.988;20.338;2024-01-16T06:54:03;103.20;2022.40
70593;DHT22;58294;42.988;20.338;2024-01-16T06:56:29;103.10;2022.40
70593;DHT22;58294;42.988;20.338;2024-01-16T06:58:55;103.00;2048.00
70593;DHT22;58294;42.988;20.338;2024-01-16T07:01:21;103.10;2022.40
70593;DHT22;58294;42.988;20.338;2024-01-16T07:03:48;103.00;2022.40
70593;DHT22;58294;42.988;20.338;2024-01-16T07:06:13;103.10;2048.00
70593;DHT22;58294;42.988;20.338;2024-01-16T07:08:39;103.00;2022.40
70593;DHT22;58294;42.988;20.338;2024-01-16T07:11:05;103.00;2048.00
70593;DHT22;58294;42.988;20.338;2024-01-16T07:13:34;103.10;2022.40
70593;DHT22;58294;42.988;20.338;2024-01-16T07:16:00;103.10;2048.00
70593;DHT22;58294;42.988;20.338;2024-01-16T07:18:27;103.10;2022.40
70593;DHT22;58294;42.988;20.338;2024-01-16T07:20:53;103.10;2073.60
70593;DHT22;58294;42.988;20.338;2024-01-16T07:23:19;103.10;2073.60
70593;DHT22;58294;42.988;20.338;2024-01-16T07:25:45;103.20;2048.00
70593;DHT22;58294;42.988;20.338;2024-01-16T07:28:11;103.20;2022.40
70593;DHT22;58294;42.988;20.338;2024-01-16T07:30:37;103.20;2022.40
70593;DHT22;58294;42.988;20.338;2024-01-16T07:33:03;103.30;2048.00
70593;DHT22;58294;42.988;20.338;2024-01-16T07:35:29;103.30;2048.00
70593;DHT22;58294;42.988;20.338;2024-01-16T07:37:55;128.00;2073.60
70593;DHT22;58294;42.988;20.338;2024-01-16T07:40:21;128.00;2048.00
70593;DHT22;58294;42.988;20.338;2024-01-16T07:42:47;128.00;2048.00
70593;DHT22;58294;42.988;20.338;2024-01-16T07:45:13;128.20;2073.60
70593;DHT22;58294;42.988;20.338;2024-01-16T07:47:39;128.20;2073.60
70593;DHT22;58294;42.988;20.338;2024-01-16T07:50:05;128.30;2073.60
70593;DHT22;58294;42.988;20.338;2024-01-16T07:52:32;128.40;2022.40
70593;DHT22;58294;42.988;20.338;2024-01-16T07:54:57;128.40;2022.40
70593;DHT22;58294;42.988;20.338;2024-01-16T07:57:23;128.50;1996.80
70593;DHT22;58294;42.988;20.338;2024-01-16T07:59:49;128.50;1996.80
70593;DHT22;58294;42.988;20.338;2024-01-16T08:02:15;128.50;1996.80
70593;DHT22;58294;42.988;20.338;2024-01-16T08:04:40;128.50;1996.80
70593;DHT22;58294;42.988;20.338;2024-01-16T08:07:07;128.60;1971.20
70593;DHT22;58294;42.988;20.338;2024-01-16T08:09:32;128.70;1996.80
70593;DHT22;58294;42.988;20.338;2024-01-16T08:11:58;128.70;1971.20
70593;DHT22;58294;42.988;20.338;2024-01-16T08:14:24;128.80;1971.20
70593;DHT22;58294;42.988;20.338;2024-01-16T08:16:51;128.80;1945.60
70593;DHT22;58294;42.988;20.338;2024-01-16T08:19:16;128.80;1920.00
70593;DHT22;58294;42.988;20.338;2024-01-16T08:21:42;128.80;1868.80
70593;DHT22;58294;42.988;20.338;2024-01-16T08:24:10;128.80;1894.40
70593;DHT22;58294;42.988;20.338;2024-01-16T08:26:36;128.70;1868.80
70593;DHT22;58294;42.988;20.338;2024-01-16T08:29:02;128.70;1894.40
70593;DHT22;58294;42.988;20.338;2024-01-16T08:31:28;128.70;1894.40
70593;DHT22;58294;42.988;20.338;2024-01-16T08:33:53;128.70;1920.00
70593;DHT22;58294;42.988;20.338;2024-01-16T08:36:21;128.80;1945.60
70593;DHT22;58294;42.988;20.338;2024-01-16T08:38:47;128.80;1920.00
70593;DHT22;58294;42.988;20.338;2024-01-16T08:41:13;128.90;1920.00
70593;DHT22;58294;42.988;20.338;2024-01-16T08:43:39;128.90;1920.00
70593;DHT22;58294;42.988;20.338;2024-01-16T08:46:04;153.60;1945.60
70593;DHT22;58294;42.988;20.338;2024-01-16T08:48:30;153.70;1920.00
70593;DHT22;58294;42.988;20.338;2024-01-16T08:50:56;153.70;1920.00
70593;DHT22;58294;42.988;20.338;2024-01-16T08:53:22;153.80;1920.00
70593;DHT22;58294;42.988;20.338;2024-01-16T08:55:49;153.90;1894.40
70593;DHT22;58294;42.988;20.338;2024-01-16T08:58:15;153.90;1868.80
70593;DHT22;58294;42.988;20.338;2024-01-16T09:00:40;153.90;1868.80
70593;DHT22;58294;42.988;20.338;2024-01-16T09:03:06;153.90;1894.40
70593;DHT22;58294;42.988;20.338;2024-01-16T09:05:33;154.00;1920.00
70593;DHT22;58294;42.988;20.338;2024-01-16T09:08:04;154.20;1920.00
70593;DHT22;58294;42.988;20.338;2024-01-16T09:10:30;154.20;1894.40
70593;DHT22;58294;42.988;20.338;2024-01-16T09:12:55;154.40;1920.00
70593;DHT22;58294;42.988;20.338;2024-01-16T09:15:21;154.50;1868.80
70593;DHT22;58294;42.988;20.338;2024-01-16T09:17:47;179.20;1868.80
70593;DHT22;58294;42.988;20.338;2024-01-16T09:20:13;179.20;1843.20
70593;DHT22;58294;42.988;20.338;2024-01-16T09:22:39;179.20;1817.60
70593;DHT22;58294;42.988;20.338;2024-01-16T09:25:05;179.20;1843.20
70593;DHT22;58294;42.988;20.338;2024-01-16T09:27:31;179.30;1843.20
70593;DHT22;58294;42.988;20.338;2024-01-16T09:29:57;179.40;1817.60
70593;DHT22;58294;42.988;20.338;2024-01-16T09:32:23;179.50;1817.60
70593;DHT22;58294;42.988;20.338;2024-01-16T09:34:49;179.50;1792.00
70593;DHT22;58294;42.988;20.338;2024-01-16T09:37:15;179.50;1792.00
70593;DHT22;58294;42.988;20.338;2024-01-16T09:39:41;179.60;1843.20
70593;DHT22;58294;42.988;20.338;2024-01-16T09:42:07;179.80;1868.80
70593;DHT22;58294;42.988;20.338;2024-01-16T09:44:33;179.90;1817.60
70593;DHT22;58294;42.988;20.338;2024-01-16T09:47:01;180.00;1792.00
70593;DHT22;58294;42.988;20.338;2024-01-16T09:49:29;179.90;1740.80
70593;DHT22;58294;42.988;20.338;2024-01-16T09:51:55;179.80;1715.20
70593;DHT22;58294;42.988;20.338;2024-01-16T09:54:24;179.80;1689.60
70593;DHT22;58294;42.988;20.338;2024-01-16T09:56:53;179.70;1740.80
70593;DHT22;58294;42.988;20.338;2024-01-16T09:59:24;179.80;1740.80
70593;DHT22;58294;42.988;20.338;2024-01-16T10:01:54;179.80;1740.80
70593;DHT22;58294;42.988;20.338;2024-01-16T10:04:21;179.80;1740.80
70593;DHT22;58294;42.988;20.338;2024-01-16T10:06:48;179.80;1689.60
70593;DHT22;58294;42.988;20.338;2024-01-16T10:09:15;179.80;1715.20
70593;DHT22;58294;42.988;20.338;2024-01-16T10:11:42;179.80;1715.20
70593;DHT22;58294;42.988;20.338;2024-01-16T10:14:08;179.90;1715.20
70593;DHT22;58294;42.988;20.338;2024-01-16T10:16:57;179.90;1715.20
70593;DHT22;58294;42.988;20.338;2024-01-16T10:19:23;179.90;1689.60
70593;DHT22;58294;42.988;20.338;2024-01-16T10:21:50;179.80;1689.60
70593;DHT22;58294;42.988;20.338;2024-01-16T10:24:16;179.90;1715.20
70593;DHT22;58294;42.988;20.338;2024-01-16T10:26:42;180.00;1715.20
70593;DHT22;58294;42.988;20.338;2024-01-16T10:29:08;179.90;1689.60
70593;DHT22;58294;42.988;20.338;2024-01-16T10:31:34;180.00;1715.20
70593;DHT22;58294;42.988;20.338;2024-01-16T10:34:00;180.10;1715.20
70593;DHT22;58294;42.988;20.338;2024-01-16T10:36:26;204.80;1715.20
70593;DHT22;58294;42.988;20.338;2024-01-16T10:38:52;204.80;1664.00
70593;DHT22;58294;42.988;20.338;2024-01-16T10:41:27;204.90;1689.60
70593;DHT22;58294;42.988;20.338;2024-01-16T10:44:06;204.90;1638.40
70593;DHT22;58294;42.988;20.338;2024-01-16T10:46:32;205.00;1664.00
70593;DHT22;58294;42.988;20.338;2024-01-16T10:49:07;204.90;1638.40
70593;DHT22;58294;42.988;20.338;2024-01-16T10:51:33;205.00;1689.60
70593;DHT22;58294;42.988;20.338;2024-01-16T10:54:04;205.00;1638.40
70593;DHT22;58294;42.988;20.338;2024-01-16T10:56:35;205.10;1664.00
70593;DHT22;58294;42.988;20.338;2024-01-16T10:59:24;205.10;1664.00
70593;DHT22;58294;42.988;20.338;2024-01-16T11:01:52;205.20;1612.80
70593;DHT22;58294;42.988;20.338;2024-01-16T11:04:20;205.20;1638.40
70593;DHT22;58294;42.988;20.338;2024-01-16T11:06:47;205.20;1587.20
70593;DHT22;58294;42.988;20.338;2024-01-16T11:09:14;205.20;1612.80
70593;DHT22;58294;42.988;20.338;2024-01-16T11:11:46;205.30;1612.80
70593;DHT22;58294;42.988;20.338;2024-01-16T11:14:13;205.30;1638.40
70593;DHT22;58294;42.988;20.338;2024-01-16T11:16:41;205.40;1664.00
70593;DHT22;58294;42.988;20.338;2024-01-16T11:19:11;205.50;1612.80
70593;DHT22;58294;42.988;20.338;2024-01-16T11:21:38;205.50;1587.20
70593;DHT22;58294;42.988;20.338;2024-01-16T11:24:05;205.50;1587.20
70593;DHT22;58294;42.988;20.338;2024-01-16T11:26:33;205.50;1587.20
70593;DHT22;58294;42.988;20.338;2024-01-16T11:31:54;205.60;1587.20
70593;DHT22;58294;42.988;20.338;2024-01-16T11:37:07;205.70;1612.80
70593;DHT22;58294;42.988;20.338;2024-01-16T11:39:34;230.40;1561.60
70593;DHT22;58294;42.988;20.338;2024-01-16T11:42:00;230.50;1587.20
70593;DHT22;58294;42.988;20.338;2024-01-16T11:44:45;230.50;1536.00
70593;DHT22;58294;42.988;20.338;2024-01-16T11:49:47;230.40;1536.00
70593;DHT22;58294;42.988;20.338;2024-01-16T11:52:13;230.40;1536.00
70593;DHT22;58294;42.988;20.338;2024-01-16T11:54:40;230.40;1459.20
70593;DHT22;58294;42.988;20.338;2024-01-16T12:00:05;230.40;1510.40
70593;DHT22;58294;42.988;20.338;2024-01-16T12:02:51;230.40;1536.00
70593;DHT22;58294;42.988;20.338;2024-01-16T12:05:18;230.40;1536.00
70593;DHT22;58294;42.988;20.338;2024-01-16T12:07:52;230.50;1536.00
70593;DHT22;58294;42.988;20.338;2024-01-16T12:10:21;230.50;1510.40
70593;DHT22;58294;42.988;20.338;2024-01-16T12:12:48;230.60;1510.40
70593;DHT22;58294;42.988;20.338;2024-01-16T12:15:18;230.70;1510.40
70593;DHT22;58294;42.988;20.338;2024-01-16T12:20:21;230.70;1510.40
70593;DHT22;58294;42.988;20.338;2024-01-16T12:23:07;230.70;1484.80
70593;DHT22;58294;42.988;20.338;2024-01-16T12:25:37;230.60;1433.60
70593;DHT22;58294;42.988;20.338;2024-01-16T12:28:07;230.50;1433.60
70593;DHT22;58294;42.988;20.338;2024-01-16T12:30:36;230.40;1433.60
70593;DHT22;58294;42.988;20.338;2024-01-16T12:33:06;205.70;1433.60
70593;DHT22;58294;42.988;20.338;2024-01-16T12:35:43;205.50;1433.60
70593;DHT22;58294;42.988;20.338;2024-01-16T12:38:11;205.30;1433.60
70593;DHT22;58294;42.988;20.338;2024-01-16T12:40:47;205.20;1433.60
70593;DHT22;58294;42.988;20.338;2024-01-16T12:43:17;205.10;1459.20
70593;DHT22;58294;42.988;20.338;2024-01-16T12:45:44;205.10;1484.80
70593;DHT22;58294;42.988;20.338;2024-01-16T12:48:10;205.10;1484.80
70593;DHT22;58294;42.988;20.338;2024-01-16T12:50:37;205.10;1433.60
70593;DHT22;58294;42.988;20.338;2024-01-16T12:53:12;205.10;1510.40
70593;DHT22;58294;42.988;20.338;2024-01-16T12:55:39;205.00;1484.80
70593;DHT22;58294;42.988;20.338;2024-01-16T12:58:16;205.00;1484.80
70593;DHT22;58294;42.988;20.338;2024-01-16T13:00:43;205.10;1510.40
70593;DHT22;58294;42.988;20.338;2024-01-16T13:03:18;205.20;1510.40
70593;DHT22;58294;42.988;20.338;2024-01-16T13:05:46;205.30;1510.40
70593;DHT22;58294;42.988;20.338;2024-01-16T13:08:19;205.30;1510.40
70593;DHT22;58294;42.988;20.338;2024-01-16T13:10:46;205.40;1484.80
70593;DHT22;58294;42.988;20.338;2024-01-16T13:13:20;205.40;1459.20
70593;DHT22;58294;42.988;20.338;2024-01-16T13:15:47;205.40;1459.20
70593;DHT22;58294;42.988;20.338;2024-01-16T13:18:21;205.30;1459.20
70593;DHT22;58294;42.988;20.338;2024-01-16T13:20:51;205.30;1459.20
70593;DHT22;58294;42.988;20.338;2024-01-16T13:23:17;205.20;1459.20
70593;DHT22;58294;42.988;20.338;2024-01-16T13:25:46;205.20;1433.60
70593;DHT22;58294;42.988;20.338;2024-01-16T13:28:13;205.20;1433.60
70593;DHT22;58294;42.988;20.338;2024-01-16T13:30:40;205.20;1459.20
70593;DHT22;58294;42.988;20.338;2024-01-16T13:33:07;205.10;1356.80
70593;DHT22;58294;42.988;20.338;2024-01-16T13:35:37;205.00;1433.60
70593;DHT22;58294;42.988;20.338;2024-01-16T13:38:05;204.90;1433.60
70593;DHT22;58294;42.988;20.338;2024-01-16T13:40:32;204.80;1433.60
70593;DHT22;58294;42.988;20.338;2024-01-16T13:42:59;204.80;1459.20
70593;DHT22;58294;42.988;20.338;2024-01-16T13:45:25;180.10;1459.20
70593;DHT22;58294;42.988;20.338;2024-01-16T13:47:51;180.10;1459.20
70593;DHT22;58294;42.988;20.338;2024-01-16T13:50:17;180.00;1459.20
70593;DHT22;58294;42.988;20.338;2024-01-16T13:52:45;179.90;1484.80
70593;DHT22;58294;42.988;20.338;2024-01-16T13:55:11;179.70;1459.20
70593;DHT22;58294;42.988;20.338;2024-01-16T13:57:37;179.70;1484.80
70593;DHT22;58294;42.988;20.338;2024-01-16T14:00:05;179.60;1459.20
70593;DHT22;58294;42.988;20.338;2024-01-16T14:02:32;179.60;1484.80
70593;DHT22;58294;42.988;20.338;2024-01-16T14:05:00;179.60;1484.80
70593;DHT22;58294;42.988;20.338;2024-01-16T14:07:26;179.60;1510.40
70593;DHT22;58294;42.988;20.338;2024-01-16T14:09:52;179.50;1484.80
70593;DHT22;58294;42.988;20.338;2024-01-16T14:12:17;179.50;1484.80
70593;DHT22;58294;42.988;20.338;2024-01-16T14:14:45;179.40;1459.20
70593;DHT22;58294;42.988;20.338;2024-01-16T14:17:12;179.30;1484.80
70593;DHT22;58294;42.988;20.338;2024-01-16T14:19:38;179.30;1484.80
70593;DHT22;58294;42.988;20.338;2024-01-16T14:22:06;179.20;1484.80
70593;DHT22;58294;42.988;20.338;2024-01-16T14:24:31;179.20;1510.40
70593;DHT22;58294;42.988;20.338;2024-01-16T14:26:57;179.20;1510.40
70593;DHT22;58294;42.988;20.338;2024-01-16T14:29:23;154.50;1510.40
70593;DHT22;58294;42.988;20.338;2024-01-16T14:31:49;154.50;1484.80
70593;DHT22;58294;42.988;20.338;2024-01-16T14:34:15;154.50;1510.40
70593;DHT22;58294;42.988;20.338;2024-01-16T14:36:41;154.50;1510.40
70593;DHT22;58294;42.988;20.338;2024-01-16T14:39:07;154.50;1510.40
70593;DHT22;58294;42.988;20.338;2024-01-16T14:41:42;154.50;1510.40
70593;DHT22;58294;42.988;20.338;2024-01-16T14:44:13;154.50;1510.40
70593;DHT22;58294;42.988;20.338;2024-01-16T14:46:44;154.40;1510.40
70593;DHT22;58294;42.988;20.338;2024-01-16T14:49:10;154.30;1510.40